createdAt,value
2023-01-23T00:01:17.289Z,3.52
2023-01-23T00:04:20.396Z,3.54
2023-01-23T00:07:24.493Z,3.56
2023-01-23T00:10:30.228Z,3.57
2023-01-23T00:13:32.932Z,3.58
2023-01-23T00:16:35.606Z,3.60
2023-01-23T00:19:38.278Z,3.64
2023-01-23T00:22:45.044Z,3.62
2023-01-23T00:25:47.749Z,3.63
2023-01-23T00:28:51.351Z,3.62
2023-01-23T00:31:54.050Z,3.63
2023-01-23T00:35:00.614Z,3.62
2023-01-23T00:38:05.286Z,3.64
2023-01-23T00:41:08.403Z,3.63
2023-01-23T00:44:11.139Z,3.62
2023-01-23T00:47:15.433Z,3.57
2023-01-23T00:50:18.453Z,3.61
2023-01-23T00:53:24.473Z,3.62
2023-01-23T00:56:27.166Z,3.66
2023-01-23T00:59:33.832Z,3.64
2023-01-23T01:02:36.545Z,3.65
2023-01-23T01:05:40.779Z,3.61
2023-01-23T01:08:45.985Z,3.54
2023-01-23T01:11:48.689Z,3.51
2023-01-23T01:14:51.358Z,3.53
2023-01-23T01:17:54.234Z,3.54
2023-01-23T01:20:57.828Z,3.45
2023-01-23T01:24:02.389Z,3.18
2023-01-23T01:27:05.251Z,3.28
2023-01-23T01:30:09.304Z,3.11
2023-01-23T01:33:12.141Z,3.31
2023-01-23T01:36:18.821Z,3.25
2023-01-23T01:39:23.032Z,3.05
2023-01-23T01:42:28.333Z,3.18
2023-01-23T01:46:02.327Z,3.15
2023-01-23T01:49:10.345Z,3.23
2023-01-23T01:52:15.565Z,3.23
2023-01-23T01:55:19.676Z,3.20
2023-01-23T01:58:23.062Z,3.12
2023-01-23T02:01:26.876Z,3.18
2023-01-23T02:04:29.564Z,3.24
2023-01-23T02:07:36.815Z,3.17
2023-01-23T02:10:40.910Z,2.95
2023-01-23T02:13:44.362Z,2.77
2023-01-23T02:16:51.021Z,3.08
2023-01-23T02:20:08.984Z,2.93
2023-01-23T02:23:17.367Z,2.94
2023-01-23T02:26:24.684Z,3.05
2023-01-23T02:29:27.748Z,2.89
2023-01-23T02:32:30.626Z,3.09
2023-01-23T02:35:33.723Z,2.96
2023-01-23T02:38:41.309Z,2.85
2023-01-23T02:41:47.567Z,3.15
2023-01-23T02:44:53.815Z,3.12
2023-01-23T02:47:56.561Z,3.14
2023-01-23T02:50:59.406Z,2.90
2023-01-23T02:54:02.315Z,2.95
2023-01-23T02:57:06.438Z,2.65
2023-01-23T03:00:20.770Z,3.01
2023-01-23T03:03:23.866Z,2.99
2023-01-23T03:06:26.802Z,2.97
2023-01-23T03:09:29.845Z,2.91
2023-01-23T03:12:33.989Z,2.80
2023-01-23T03:15:38.459Z,3.01
2023-01-23T03:18:53.505Z,2.88
2023-01-23T03:21:56.879Z,2.78
2023-01-23T03:24:59.622Z,2.94
2023-01-23T03:28:04.020Z,2.26
2023-01-23T03:31:05.868Z,3.02
2023-01-23T03:34:09.002Z,2.83
2023-01-23T03:37:13.558Z,2.94
2023-01-23T03:40:35.455Z,2.58
2023-01-23T03:43:39.532Z,2.73
2023-01-23T03:46:42.288Z,2.75
2023-01-23T03:49:45.147Z,2.76
2023-01-23T03:52:47.956Z,2.80
2023-01-23T03:55:50.796Z,2.61
2023-01-23T03:58:55.170Z,2.91
2023-01-23T04:01:58.486Z,2.74
2023-01-23T04:05:01.199Z,2.84
2023-01-23T04:08:04.422Z,2.76
2023-01-23T04:11:09.071Z,2.83
2023-01-23T04:14:13.411Z,2.72
2023-01-23T04:17:16.219Z,2.69
2023-01-23T04:20:19.459Z,2.81
2023-01-23T04:23:23.151Z,2.83
2023-01-23T04:26:26.013Z,2.84
2023-01-23T04:29:30.452Z,2.94
2023-01-23T04:32:33.505Z,2.95
2023-01-23T04:35:36.670Z,2.99
2023-01-23T04:38:39.448Z,2.84
2023-01-23T04:41:42.337Z,2.93
2023-01-23T04:44:46.550Z,2.82
2023-01-23T04:47:49.363Z,2.35
2023-01-23T04:50:52.553Z,2.12
2023-01-23T04:53:55.331Z,2.81
2023-01-23T04:56:58.104Z,2.71
2023-01-23T05:00:02.212Z,2.48
2023-01-23T05:03:05.105Z,2.84
2023-01-23T05:06:08.307Z,2.88
2023-01-23T05:09:11.446Z,2.61
2023-01-23T05:12:14.320Z,2.88
2023-01-23T05:15:18.773Z,2.79
2023-01-23T05:18:21.546Z,2.87
2023-01-23T05:21:24.449Z,2.81
2023-01-23T05:24:27.236Z,2.94
2023-01-23T05:27:29.959Z,3.01
2023-01-23T05:30:34.197Z,2.45
2023-01-23T05:33:36.973Z,2.85
2023-01-23T05:36:40.495Z,2.83
2023-01-23T05:39:43.248Z,2.89
2023-01-23T05:42:45.979Z,3.00
2023-01-23T05:45:50.097Z,3.02
2023-01-23T05:48:53.253Z,2.87
2023-01-23T05:51:56.052Z,2.98
2023-01-23T05:54:58.828Z,2.97
2023-01-23T05:58:02.055Z,2.90
2023-01-23T06:01:06.877Z,2.95
2023-01-23T06:04:09.610Z,3.01
2023-01-23T06:07:17.656Z,2.76
2023-01-23T06:10:20.847Z,2.73
2023-01-23T06:13:23.867Z,2.91
2023-01-23T06:16:28.166Z,3.00
2023-01-23T06:19:30.979Z,3.08
2023-01-23T06:22:33.741Z,3.03
2023-01-23T06:25:37.503Z,2.98
2023-01-23T06:28:40.671Z,2.56
2023-01-23T06:31:46.259Z,3.03
2023-01-23T06:34:49.152Z,3.01
2023-01-23T06:37:51.865Z,2.75
2023-01-23T06:40:54.862Z,2.97
2023-01-23T06:43:57.661Z,2.82
2023-01-23T06:47:01.747Z,3.08
2023-01-23T06:50:06.138Z,3.03
2023-01-23T06:53:09.391Z,2.43
2023-01-23T06:56:13.346Z,3.19
2023-01-23T06:59:16.715Z,3.08
2023-01-23T07:02:20.833Z,3.10
2023-01-23T07:05:23.531Z,3.08
2023-01-23T07:08:26.355Z,3.02
2023-01-23T07:11:29.110Z,2.99
2023-01-23T07:14:32.167Z,3.02
2023-01-23T07:17:36.367Z,3.01
2023-01-23T07:20:39.118Z,2.95
2023-01-23T07:23:42.265Z,3.03
2023-01-23T07:26:45.101Z,2.92
2023-01-23T07:29:47.906Z,2.91
2023-01-23T07:32:52.304Z,3.03
2023-01-23T07:35:55.319Z,3.06
2023-01-23T07:38:59.076Z,3.07
2023-01-23T07:42:01.974Z,2.98
2023-01-23T07:45:05.126Z,2.85
2023-01-23T07:48:09.198Z,3.00
2023-01-23T07:51:12.054Z,3.16
2023-01-23T07:54:14.964Z,3.07
2023-01-23T07:57:17.785Z,3.21
2023-01-23T08:00:24.277Z,3.14
2023-01-23T08:03:28.947Z,3.22
2023-01-23T08:06:31.864Z,3.27
2023-01-23T08:09:34.827Z,3.23
2023-01-23T08:12:37.563Z,3.27
2023-01-23T08:15:40.475Z,3.38
2023-01-23T08:18:44.965Z,2.92
2023-01-23T08:21:47.994Z,3.36
2023-01-23T08:24:50.736Z,3.24
2023-01-23T08:27:53.452Z,3.30
2023-01-23T08:30:56.744Z,3.41
2023-01-23T08:34:00.865Z,3.44
2023-01-23T08:37:03.806Z,3.60
2023-01-23T08:40:07.933Z,3.55
2023-01-23T08:43:12.138Z,3.63
2023-01-23T08:46:14.940Z,3.60
2023-01-23T08:49:20.472Z,3.61
2023-01-23T08:52:23.708Z,3.32
2023-01-23T08:55:28.412Z,3.84
2023-01-23T08:58:31.609Z,3.77
2023-01-23T09:01:34.365Z,3.79
2023-01-23T09:04:38.562Z,3.08
2023-01-23T09:07:41.305Z,3.63
2023-01-23T09:10:44.557Z,3.86
2023-01-23T09:13:48.035Z,3.68
2023-01-23T09:16:51.118Z,3.77
2023-01-23T09:19:55.208Z,3.80
2023-01-23T09:22:57.981Z,3.81
2023-01-23T09:26:04.061Z,3.90
2023-01-23T09:29:06.995Z,3.71
2023-01-23T09:32:10.285Z,3.62
2023-01-23T09:35:14.593Z,3.66
2023-01-23T09:38:17.406Z,3.65
2023-01-23T09:41:22.309Z,3.83
2023-01-23T09:44:36.929Z,4.02
2023-01-23T09:47:48.185Z,3.77
2023-01-23T09:51:02.096Z,3.82
2023-01-23T09:54:21.963Z,3.77
2023-01-23T09:57:27.213Z,4.01
2023-01-23T10:00:32.322Z,3.91
2023-01-23T10:03:35.588Z,4.17
2023-01-23T10:06:59.421Z,3.91
2023-01-23T10:10:25.056Z,3.97
2023-01-23T10:13:45.838Z,4.06
2023-01-23T10:17:03.310Z,3.81
2023-01-23T10:20:36.979Z,3.93
2023-01-23T10:23:54.274Z,3.72
2023-01-23T10:27:04.712Z,3.87
2023-01-23T10:30:20.765Z,3.79
2023-01-23T10:33:35.333Z,4.00
2023-01-23T10:36:54.030Z,4.10
2023-01-23T10:40:04.175Z,4.22
2023-01-23T10:43:13.591Z,4.09
2023-01-23T10:46:18.072Z,4.43
2023-01-23T10:49:44.300Z,4.43
2023-01-23T10:52:47.933Z,4.42
2023-01-23T10:55:53.659Z,4.08
2023-01-23T10:58:57.070Z,4.41
2023-01-23T11:02:03.406Z,4.60
2023-01-23T11:05:51.110Z,4.23
2023-01-23T11:08:58.674Z,4.36
2023-01-23T11:12:03.539Z,4.41
2023-01-23T11:15:15.250Z,4.34
2023-01-23T11:18:32.434Z,4.36
2023-01-23T11:21:38.164Z,4.40
2023-01-23T11:24:41.792Z,4.25
2023-01-23T11:27:57.876Z,4.26
2023-01-23T11:31:13.660Z,4.30
2023-01-23T11:34:22.737Z,4.23
2023-01-23T11:37:32.491Z,4.24
2023-01-23T11:40:36.128Z,4.33
2023-01-23T11:43:39.282Z,3.75
2023-01-23T11:46:57.861Z,4.17
2023-01-23T11:50:18.984Z,4.42
2023-01-23T11:53:41.119Z,4.46
2023-01-23T11:56:57.328Z,4.60
2023-01-23T12:00:18.670Z,4.18
2023-01-23T12:03:45.765Z,4.40
2023-01-23T12:07:01.080Z,4.71
2023-01-23T12:10:19.910Z,4.58
2023-01-23T12:13:39.003Z,4.47
2023-01-23T12:16:58.198Z,4.43
2023-01-23T12:20:21.342Z,4.52
2023-01-23T12:23:37.811Z,4.73
2023-01-23T12:26:58.635Z,4.73
2023-01-23T12:30:20.196Z,4.75
2023-01-23T12:33:51.584Z,4.90
2023-01-23T12:37:12.327Z,4.83
2023-01-23T12:40:28.160Z,4.59
2023-01-23T12:43:39.231Z,4.77
2023-01-23T12:46:50.380Z,5.03
2023-01-23T12:49:57.310Z,4.69
2023-01-23T12:53:05.441Z,4.84
2023-01-23T12:56:15.734Z,4.69
2023-01-23T12:59:26.615Z,4.72
2023-01-23T13:02:41.629Z,4.99
2023-01-23T13:05:54.906Z,4.92
2023-01-23T13:09:16.735Z,5.12
2023-01-23T13:12:23.463Z,5.04
2023-01-23T13:15:40.113Z,4.65
2023-01-23T13:19:11.799Z,4.92
2023-01-23T13:22:28.656Z,4.73
2023-01-23T13:25:33.681Z,4.85
2023-01-23T13:28:46.420Z,5.05
2023-01-23T13:31:52.691Z,4.59
2023-01-23T13:34:55.628Z,4.47
2023-01-23T13:38:00.144Z,4.77
2023-01-23T13:41:31.493Z,4.77
2023-01-23T13:44:42.144Z,4.46
2023-01-23T14:27:52.795Z,4.09
2023-01-23T14:30:58.519Z,4.28
2023-01-23T14:34:09.780Z,4.34
2023-01-23T14:37:13.696Z,3.99
2023-01-23T14:40:27.193Z,4.16
2023-01-23T14:43:33.034Z,4.01
2023-01-23T14:46:40.138Z,4.07
2023-01-23T14:49:43.692Z,3.85
2023-01-23T14:52:46.856Z,4.25
2023-01-23T14:55:52.693Z,3.62
2023-01-23T14:58:58.798Z,3.96
2023-01-23T15:02:13.215Z,4.14
2023-01-23T15:05:26.965Z,4.18
2023-01-23T15:08:33.227Z,4.00
2023-01-23T15:11:37.384Z,4.08
2023-01-23T15:14:41.289Z,4.00
2023-01-23T15:17:45.124Z,3.91
2023-01-23T15:20:54.788Z,3.83
2023-01-23T15:24:06.684Z,3.83
2023-01-23T15:27:26.478Z,3.48
2023-01-23T15:30:31.774Z,3.75
2023-01-23T15:33:40.013Z,3.77
2023-01-23T15:36:48.156Z,3.62
2023-01-23T15:39:52.720Z,3.32
2023-01-23T15:43:05.657Z,3.63
2023-01-23T15:46:11.082Z,3.06
2023-01-23T15:49:24.906Z,3.47
2023-01-23T15:52:30.611Z,3.23
2023-01-23T15:55:33.376Z,3.42
2023-01-23T15:58:45.846Z,3.47
2023-01-23T16:01:48.847Z,3.35
2023-01-23T16:04:52.062Z,3.40
2023-01-23T16:07:56.094Z,3.34
2023-01-23T16:10:59.087Z,2.94
2023-01-23T16:17:54.539Z,2.60
2023-01-23T16:20:57.437Z,3.20
2023-01-23T16:24:00.593Z,2.72
2023-01-23T16:27:04.465Z,3.06
2023-01-23T16:30:11.885Z,3.15
2023-01-23T16:33:16.240Z,3.18
2023-01-23T16:36:20.406Z,3.23
2023-01-23T16:39:25.769Z,2.91
2023-01-23T16:42:29.605Z,2.82
2023-01-23T16:45:33.424Z,3.35
2023-01-23T16:48:37.783Z,3.12
2023-01-23T16:51:41.895Z,3.41
2023-01-23T16:54:45.129Z,2.61
2023-01-23T16:57:49.091Z,2.68
2023-01-23T17:00:53.053Z,3.07
2023-01-23T17:04:00.576Z,3.34
2023-01-23T17:07:03.918Z,3.44
2023-01-23T17:10:07.767Z,3.50
2023-01-23T17:13:12.171Z,3.49
2023-01-23T17:16:26.507Z,3.54
2023-01-23T17:19:33.653Z,3.56
2023-01-23T17:22:41.287Z,3.54
2023-01-23T17:25:59.816Z,3.52
2023-01-23T17:29:04.333Z,3.52
2023-01-23T17:32:07.324Z,3.47
2023-01-23T17:35:21.446Z,3.53
2023-01-23T17:38:26.804Z,3.55
2023-01-23T17:41:31.606Z,3.49
2023-01-23T17:44:35.046Z,3.62
2023-01-23T17:47:37.977Z,3.64
2023-01-23T17:50:44.335Z,3.67
2023-01-23T17:53:48.074Z,3.72
2023-01-23T17:56:51.132Z,3.64
2023-01-23T17:59:56.312Z,3.49
2023-01-23T18:03:02.158Z,3.90
2023-01-23T18:06:06.763Z,3.92
2023-01-23T18:09:09.980Z,3.88
2023-01-23T18:12:19.764Z,3.97
2023-01-23T18:15:31.464Z,3.83
2023-01-23T18:18:36.262Z,3.80
2023-01-23T18:21:41.224Z,3.82
2023-01-23T18:24:44.673Z,3.62
2023-01-23T18:27:50.263Z,3.80
2023-01-23T18:31:00.974Z,3.72
2023-01-23T18:34:14.414Z,3.73
2023-01-23T18:37:28.787Z,3.59
2023-01-23T18:40:37.245Z,3.33
2023-01-23T18:43:43.696Z,3.60
2023-01-23T18:46:47.014Z,3.56
2023-01-23T18:49:50.212Z,3.50
2023-01-23T18:53:08.747Z,3.63
2023-01-23T18:56:22.577Z,3.62
2023-01-23T18:59:32.403Z,3.68
2023-01-23T19:02:43.383Z,3.64
2023-01-23T19:05:47.297Z,3.34
2023-01-23T19:08:53.596Z,3.47
2023-01-23T19:12:02.923Z,3.81
2023-01-23T19:15:22.894Z,3.89
2023-01-23T19:18:47.234Z,3.87
2023-01-23T19:21:50.747Z,3.70
2023-01-23T19:24:55.655Z,3.63
2023-01-23T19:28:01.005Z,3.62
2023-01-23T19:31:04.389Z,4.10
2023-01-23T19:34:08.014Z,4.01
2023-01-23T19:37:10.717Z,4.10
2023-01-23T19:40:17.009Z,4.05
2023-01-23T19:43:20.077Z,4.12
2023-01-23T19:46:26.325Z,4.17
2023-01-23T19:49:29.209Z,4.31
2023-01-23T19:52:32.040Z,4.38
2023-01-23T19:55:38.347Z,3.97
2023-01-23T19:58:42.404Z,4.07
2023-01-23T20:01:48.725Z,4.13
2023-01-23T20:04:51.932Z,4.10
2023-01-23T20:07:55.265Z,4.10
2023-01-23T20:10:59.767Z,4.08
2023-01-23T20:14:02.548Z,4.10
2023-01-23T20:17:05.373Z,4.11
2023-01-23T20:20:12.033Z,4.11
2023-01-23T20:23:14.898Z,4.04
2023-01-23T20:26:38.169Z,4.28
2023-01-23T20:29:41.012Z,4.13
2023-01-23T20:32:43.942Z,4.19
2023-01-23T20:35:46.782Z,4.54
2023-01-23T20:38:49.623Z,4.11
2023-01-23T20:41:53.893Z,3.84
2023-01-23T20:44:56.680Z,3.73
2023-01-23T20:47:59.701Z,3.81
2023-01-23T20:51:02.476Z,4.03
2023-01-23T20:54:05.602Z,3.77
2023-01-23T20:57:09.686Z,4.20
2023-01-23T21:00:12.777Z,4.13
2023-01-23T21:03:15.612Z,4.16
2023-01-23T21:06:18.994Z,4.10
2023-01-23T21:09:21.792Z,4.10
2023-01-23T21:12:26.083Z,4.21
2023-01-23T21:15:29.537Z,4.10
2023-01-23T21:18:37.424Z,4.21
2023-01-23T21:21:40.586Z,4.06
2023-01-23T21:24:43.588Z,4.10
2023-01-23T21:27:47.623Z,4.01
2023-01-23T21:30:50.702Z,3.86
2023-01-23T21:33:53.807Z,4.23
2023-01-23T21:36:56.583Z,4.01
2023-01-23T21:39:59.309Z,4.30
2023-01-23T21:43:03.348Z,4.02
2023-01-23T21:46:07.341Z,3.91
2023-01-23T21:49:10.366Z,3.98
2023-01-23T21:52:13.077Z,3.95
2023-01-23T21:55:15.834Z,3.97
2023-01-23T21:58:19.972Z,3.99
2023-01-23T22:01:33.754Z,3.98
2023-01-23T22:04:37.186Z,3.94
2023-01-23T22:07:39.931Z,3.99
2023-01-23T22:10:42.801Z,4.01
2023-01-23T22:13:47.082Z,4.08
2023-01-23T22:16:50.920Z,4.13
2023-01-23T22:19:54.228Z,4.00
2023-01-23T22:22:56.955Z,3.74
2023-01-23T22:26:02.527Z,4.06
2023-01-23T22:29:06.936Z,4.22
2023-01-23T22:32:09.944Z,4.25
2023-01-23T22:35:12.954Z,4.17
2023-01-23T22:38:17.314Z,3.99
2023-01-23T22:41:20.904Z,3.98
2023-01-23T22:44:25.405Z,3.63
2023-01-23T22:47:28.205Z,3.93
2023-01-23T22:50:31.130Z,3.99
2023-01-23T22:53:34.229Z,4.23
2023-01-23T22:56:37.162Z,4.10
2023-01-23T22:59:41.375Z,3.99
2023-01-23T23:02:44.084Z,3.98
2023-01-23T23:05:47.038Z,3.66
2023-01-23T23:08:50.204Z,3.94
2023-01-23T23:11:53.069Z,3.81
2023-01-23T23:14:57.138Z,3.66
2023-01-23T23:17:59.891Z,4.18
2023-01-23T23:21:03.283Z,3.74
2023-01-23T23:24:09.521Z,4.10
2023-01-23T23:27:12.534Z,3.91
2023-01-23T23:30:17.317Z,4.02
2023-01-23T23:33:21.070Z,3.81
2023-01-23T23:36:24.367Z,3.85
2023-01-23T23:39:27.189Z,3.77
2023-01-23T23:42:29.917Z,4.01
2023-01-23T23:45:34.413Z,3.92
2023-01-23T23:48:38.235Z,3.91
2023-01-23T23:51:40.959Z,3.78
2023-01-23T23:54:43.714Z,3.92
2023-01-23T23:57:46.596Z,4.02
